createdAt,value
2023-02-16T00:01:36.615Z,60.75
2023-02-16T00:04:09.517Z,113.28
2023-02-16T00:06:36.054Z,129.55
2023-02-16T00:09:02.516Z,111.75
2023-02-16T00:11:50.228Z,171.20
2023-02-16T00:14:17.006Z,53.47
2023-02-16T00:16:44.978Z,95.13
2023-02-16T00:19:18.957Z,126.65
2023-02-16T00:21:45.558Z,99.65
2023-02-16T00:24:12.029Z,82.20
2023-02-16T00:26:40.110Z,47.33
2023-02-16T00:29:06.867Z,77.43
2023-02-16T00:31:36.199Z,86.60
2023-02-16T00:34:15.892Z,106.82
2023-02-16T00:36:42.298Z,127.07
2023-02-16T00:39:08.836Z,176.68
2023-02-16T00:41:50.398Z,195.82
2023-02-16T00:44:17.848Z,124.10
2023-02-16T00:46:44.862Z,128.52
2023-02-16T00:49:14.730Z,49.13
2023-02-16T00:51:41.332Z,108.97
2023-02-16T00:54:07.822Z,173.70
2023-02-16T00:56:34.537Z,174.32
2023-02-16T00:59:02.423Z,140.07
2023-02-16T01:01:31.049Z,147.48
2023-02-16T01:03:58.431Z,104.68
2023-02-16T01:06:44.373Z,142.70
2023-02-16T01:09:31.298Z,154.43
2023-02-16T01:11:58.012Z,51.17
2023-02-16T01:14:24.902Z,66.15
2023-02-16T01:16:51.437Z,83.28
2023-02-16T01:19:17.923Z,69.88
2023-02-16T01:21:45.781Z,41.75
2023-02-16T01:24:12.344Z,56.00
2023-02-16T01:26:39.932Z,34.55
2023-02-16T01:29:06.679Z,53.97
2023-02-16T01:31:33.268Z,44.40
2023-02-16T01:33:59.861Z,114.35
2023-02-16T01:36:27.533Z,46.00
2023-02-16T01:38:55.389Z,59.90
2023-02-16T01:41:25.063Z,102.57
2023-02-16T01:43:55.196Z,154.43
2023-02-16T01:46:24.573Z,107.95
2023-02-16T01:48:51.042Z,50.15
2023-02-16T01:51:22.273Z,78.55
2023-02-16T01:53:50.795Z,118.70
2023-02-16T01:56:27.042Z,133.43
2023-02-16T01:58:55.563Z,199.98
2023-02-16T02:01:42.836Z,191.07
2023-02-16T02:04:30.541Z,173.50
2023-02-16T02:06:57.014Z,82.22
2023-02-16T02:09:25.308Z,211.45
2023-02-16T02:11:55.900Z,52.17
2023-02-16T02:14:24.222Z,122.38
2023-02-16T02:16:55.661Z,167.20
2023-02-16T02:19:22.312Z,176.85
2023-02-16T02:22:14.889Z,276.05
2023-02-16T02:24:52.606Z,258.77
2023-02-16T02:27:22.654Z,144.60
2023-02-16T02:30:07.413Z,176.60
2023-02-16T02:32:40.497Z,171.10
2023-02-16T02:35:15.448Z,326.90
2023-02-16T02:37:46.883Z,133.48
2023-02-16T02:40:16.743Z,192.50
2023-02-16T02:42:49.587Z,131.43
2023-02-16T02:45:18.801Z,150.98
2023-02-16T02:47:46.706Z,169.55
2023-02-16T02:50:24.850Z,133.50
2023-02-16T02:52:51.306Z,182.50
2023-02-16T02:55:37.167Z,53.10
2023-02-16T02:58:24.018Z,107.00
2023-02-16T03:00:51.782Z,115.78
2023-02-16T03:03:19.731Z,224.55
2023-02-16T03:05:48.029Z,286.65
2023-02-16T03:08:17.560Z,152.30
2023-02-16T03:11:04.242Z,108.57
2023-02-16T03:13:34.754Z,197.52
2023-02-16T03:16:02.737Z,227.77
2023-02-16T03:18:48.999Z,289.67
2023-02-16T03:21:34.411Z,257.20
2023-02-16T03:24:21.649Z,214.20
2023-02-16T03:27:09.172Z,259.00
2023-02-16T03:29:37.375Z,232.30
2023-02-16T03:32:04.200Z,263.95
2023-02-16T03:34:30.693Z,153.43
2023-02-16T03:36:58.706Z,309.00
2023-02-16T03:39:26.131Z,247.70
2023-02-16T03:41:53.306Z,191.27
2023-02-16T03:44:20.189Z,208.18
2023-02-16T03:46:51.060Z,156.38
2023-02-16T03:49:17.717Z,135.02
2023-02-16T03:51:44.291Z,116.13
2023-02-16T03:54:10.772Z,200.20
2023-02-16T03:56:37.267Z,275.83
2023-02-16T03:59:03.792Z,93.57
2023-02-16T04:01:30.258Z,144.23
2023-02-16T04:03:58.263Z,119.43
2023-02-16T04:06:24.783Z,254.25
2023-02-16T04:08:51.292Z,87.30
2023-02-16T04:11:36.361Z,80.03
2023-02-16T04:14:03.049Z,137.02
2023-02-16T04:16:29.594Z,148.27
2023-02-16T04:18:56.029Z,142.23
2023-02-16T04:21:23.889Z,90.25
2023-02-16T04:23:50.344Z,44.60
2023-02-16T04:26:16.894Z,150.05
2023-02-16T04:28:43.432Z,135.65
2023-02-16T04:31:10.071Z,120.78
2023-02-16T04:33:36.563Z,149.52
2023-02-16T04:36:03.041Z,98.00
2023-02-16T04:38:30.956Z,49.88
2023-02-16T04:40:57.468Z,48.92
2023-02-16T04:43:23.995Z,60.28
2023-02-16T04:45:50.659Z,149.55
2023-02-16T04:48:17.147Z,59.13
2023-02-16T04:50:43.611Z,208.80
2023-02-16T04:53:10.104Z,184.80
2023-02-16T04:55:37.976Z,67.40
2023-02-16T04:58:04.523Z,200.15
2023-02-16T05:00:30.978Z,128.43
2023-02-16T05:02:57.462Z,64.90
2023-02-16T05:05:23.991Z,85.50
2023-02-16T05:07:50.447Z,70.82
2023-02-16T05:10:16.931Z,44.22
2023-02-16T05:13:03.326Z,56.08
2023-02-16T05:15:29.880Z,54.08
2023-02-16T05:17:56.375Z,42.00
2023-02-16T05:20:42.865Z,46.85
2023-02-16T05:23:09.334Z,41.00
2023-02-16T05:25:36.019Z,36.03
2023-02-16T05:28:04.192Z,38.70
2023-02-16T05:30:30.686Z,39.25
2023-02-16T05:32:57.275Z,38.13
2023-02-16T05:35:23.756Z,35.92
2023-02-16T05:37:50.290Z,45.55
2023-02-16T05:40:16.825Z,39.78
2023-02-16T05:42:43.432Z,28.30
2023-02-16T05:45:11.299Z,30.75
2023-02-16T05:47:37.860Z,29.23
2023-02-16T05:50:04.849Z,34.08
2023-02-16T05:52:31.365Z,63.60
2023-02-16T05:54:57.939Z,80.38
2023-02-16T05:57:24.401Z,29.63
2023-02-16T05:59:50.902Z,51.55
2023-02-16T06:02:18.731Z,88.22
2023-02-16T06:04:45.224Z,76.30
2023-02-16T06:07:14.426Z,81.43
2023-02-16T06:09:41.483Z,86.10
2023-02-16T06:12:08.022Z,50.75
2023-02-16T06:14:34.528Z,41.45
2023-02-16T06:17:01.713Z,74.18
2023-02-16T06:19:29.574Z,115.55
2023-02-16T06:21:56.030Z,169.93
2023-02-16T06:24:22.638Z,159.88
2023-02-16T06:26:49.172Z,67.28
2023-02-16T06:29:15.629Z,68.00
2023-02-16T06:31:42.274Z,159.30
2023-02-16T06:34:08.881Z,73.65
2023-02-16T06:36:36.695Z,85.53
2023-02-16T06:39:03.701Z,104.53
2023-02-16T06:41:35.679Z,202.50
2023-02-16T06:44:03.249Z,117.45
2023-02-16T06:46:29.796Z,167.07
2023-02-16T06:48:56.356Z,41.55
2023-02-16T06:51:24.304Z,110.93
2023-02-16T06:53:52.182Z,85.10
2023-02-16T06:56:18.844Z,86.03
2023-02-16T06:58:45.292Z,55.10
2023-02-16T07:01:12.177Z,81.18
2023-02-16T07:03:38.941Z,72.65
2023-02-16T07:06:05.762Z,38.75
2023-02-16T07:08:32.328Z,43.67
2023-02-16T07:11:00.193Z,47.80
2023-02-16T07:13:26.723Z,46.65
2023-02-16T07:15:53.279Z,52.97
2023-02-16T07:18:19.822Z,68.82
2023-02-16T07:20:47.424Z,42.35
2023-02-16T07:23:13.946Z,60.90
2023-02-16T07:25:40.494Z,113.82
2023-02-16T07:28:08.339Z,32.90
2023-02-16T07:30:35.488Z,69.80
2023-02-16T07:33:02.522Z,73.78
2023-02-16T07:35:29.067Z,48.38
2023-02-16T07:37:57.262Z,102.70
2023-02-16T07:40:23.824Z,51.95
2023-02-16T07:42:50.360Z,91.22
2023-02-16T07:45:18.375Z,37.58
2023-02-16T07:47:44.979Z,43.90
2023-02-16T07:50:11.602Z,138.30
2023-02-16T07:52:38.181Z,126.90
2023-02-16T07:55:05.312Z,145.88
2023-02-16T07:57:31.827Z,75.55
2023-02-16T07:59:58.637Z,102.07
2023-02-16T08:02:27.512Z,65.90
2023-02-16T08:04:54.149Z,72.20
2023-02-16T08:07:21.382Z,45.70
2023-02-16T08:09:47.914Z,48.45
2023-02-16T08:12:15.359Z,57.65
2023-02-16T08:14:41.954Z,116.90
2023-02-16T08:17:08.728Z,43.08
2023-02-16T08:19:40.327Z,85.93
2023-02-16T08:22:07.389Z,66.63
2023-02-16T08:24:34.362Z,75.13
2023-02-16T08:27:01.127Z,138.82
2023-02-16T08:29:27.669Z,143.85
2023-02-16T08:31:56.783Z,57.00
2023-02-16T08:34:23.930Z,129.23
2023-02-16T08:36:54.130Z,55.85
2023-02-16T08:39:21.556Z,192.40
2023-02-16T08:41:48.888Z,129.18
2023-02-16T08:44:16.633Z,387.85
2023-02-16T08:46:44.030Z,57.25
2023-02-16T08:49:11.284Z,158.43
2023-02-16T08:51:40.918Z,201.18
2023-02-16T08:54:09.288Z,139.77
2023-02-16T08:56:35.879Z,174.60
2023-02-16T08:59:02.353Z,62.88
2023-02-16T09:01:28.986Z,188.35
2023-02-16T09:03:55.521Z,151.10
2023-02-16T09:06:22.582Z,239.18
2023-02-16T09:08:50.578Z,145.70
2023-02-16T09:11:18.719Z,262.60
2023-02-16T09:13:46.886Z,316.30
2023-02-16T09:16:15.829Z,250.40
2023-02-16T09:18:42.695Z,144.52
2023-02-16T09:21:11.749Z,159.95
2023-02-16T09:23:38.394Z,43.67
2023-02-16T09:26:08.175Z,45.70
2023-02-16T09:28:37.495Z,45.40
2023-02-16T09:31:09.056Z,182.15
2023-02-16T09:33:36.155Z,98.13
2023-02-16T09:36:04.416Z,56.45
2023-02-16T09:38:31.029Z,45.40
2023-02-16T09:40:57.656Z,45.60
2023-02-16T09:43:29.439Z,32.45
2023-02-16T09:45:58.950Z,43.00
2023-02-16T09:48:31.419Z,49.83
2023-02-16T09:50:59.253Z,49.60
2023-02-16T09:53:31.529Z,51.05
2023-02-16T09:56:04.463Z,38.35
2023-02-16T09:58:37.183Z,43.53
2023-02-16T10:01:07.669Z,48.90
2023-02-16T10:03:41.375Z,46.03
2023-02-16T10:06:21.385Z,53.10
2023-02-16T10:08:50.219Z,90.13
2023-02-16T10:11:36.798Z,38.47
2023-02-16T10:14:05.681Z,39.63
2023-02-16T10:16:37.334Z,34.67
2023-02-16T10:19:05.742Z,56.58
2023-02-16T10:21:32.518Z,44.50
2023-02-16T10:24:01.156Z,40.35
2023-02-16T10:26:30.955Z,36.03
2023-02-16T10:28:58.990Z,36.63
2023-02-16T10:31:29.480Z,36.75
2023-02-16T10:34:08.910Z,38.47
2023-02-16T10:36:43.477Z,37.85
2023-02-16T10:39:16.053Z,34.13
2023-02-16T10:41:44.237Z,34.53
2023-02-16T10:44:13.295Z,33.05
2023-02-16T10:46:41.884Z,30.60
2023-02-16T10:49:11.803Z,32.30
2023-02-16T10:51:38.415Z,27.20
2023-02-16T10:54:07.162Z,27.75
2023-02-16T10:56:44.566Z,32.90
2023-02-16T10:59:14.945Z,33.10
2023-02-16T11:01:43.618Z,33.80
2023-02-16T11:04:29.080Z,31.70
2023-02-16T11:07:02.129Z,32.78
2023-02-16T11:09:28.732Z,31.73
2023-02-16T11:11:55.609Z,32.70
2023-02-16T11:14:23.893Z,33.97
2023-02-16T11:17:02.050Z,38.60
2023-02-16T11:19:33.349Z,34.08
2023-02-16T11:21:59.961Z,38.30
2023-02-16T11:24:27.921Z,32.17
2023-02-16T11:26:59.363Z,29.65
2023-02-16T11:29:25.829Z,33.35
2023-02-16T11:31:52.382Z,32.45
2023-02-16T11:34:24.674Z,31.35
2023-02-16T11:37:00.501Z,30.50
2023-02-16T11:39:31.019Z,28.25
2023-02-16T11:41:58.369Z,29.48
2023-02-16T11:44:27.329Z,30.15
2023-02-16T11:46:55.354Z,30.58
2023-02-16T11:49:23.094Z,35.38
2023-02-16T11:51:49.557Z,29.98
2023-02-16T11:54:20.923Z,28.92
2023-02-16T11:57:01.115Z,26.27
2023-02-16T11:59:31.490Z,27.50
2023-02-16T12:02:05.931Z,33.05
2023-02-16T12:04:40.485Z,29.80
2023-02-16T12:07:15.544Z,29.02
2023-02-16T12:09:49.749Z,27.30
2023-02-16T12:12:17.890Z,25.10
2023-02-16T12:14:53.601Z,24.98
2023-02-16T12:17:24.796Z,25.00
2023-02-16T12:19:55.490Z,24.50
2023-02-16T12:22:33.496Z,24.08
2023-02-16T12:25:13.431Z,26.35
2023-02-16T12:27:42.587Z,25.92
2023-02-16T12:30:20.423Z,26.13
2023-02-16T12:32:53.634Z,26.05
2023-02-16T12:35:33.598Z,25.50
2023-02-16T12:38:03.594Z,22.48
2023-02-16T12:40:34.856Z,23.20
2023-02-16T12:43:05.795Z,22.42
2023-02-16T12:45:33.463Z,23.05
2023-02-16T12:48:01.660Z,22.75
2023-02-16T12:50:29.205Z,22.95
2023-02-16T12:52:57.896Z,24.90
2023-02-16T12:55:34.538Z,24.42
2023-02-16T12:58:04.193Z,23.88
2023-02-16T13:00:37.493Z,22.45
2023-02-16T13:03:07.931Z,25.33
2023-02-16T13:05:36.288Z,25.63
2023-02-16T13:08:08.189Z,21.60
2023-02-16T13:10:40.103Z,23.48
2023-02-16T13:13:10.694Z,21.60
2023-02-16T13:15:39.067Z,25.45
2023-02-16T13:18:06.913Z,21.95
2023-02-16T13:20:33.433Z,22.40
2023-02-16T13:23:30.446Z,22.77
2023-02-16T13:26:13.294Z,23.60
2023-02-16T13:28:49.281Z,22.35
2023-02-16T13:31:29.278Z,27.58
2023-02-16T13:34:12.088Z,22.98
2023-02-16T13:36:43.115Z,26.30
2023-02-16T13:39:20.761Z,22.88
2023-02-16T13:42:04.362Z,21.85
2023-02-16T13:44:34.915Z,25.35
2023-02-16T13:47:02.791Z,25.30
2023-02-16T13:49:31.765Z,27.67
2023-02-16T13:51:58.967Z,25.30
2023-02-16T13:54:29.058Z,25.65
2023-02-16T13:56:55.590Z,25.20
2023-02-16T13:59:40.595Z,24.67
2023-02-16T14:02:11.699Z,24.83
2023-02-16T14:04:56.720Z,26.30
2023-02-16T14:07:32.075Z,26.33
2023-02-16T14:09:58.623Z,33.25
2023-02-16T14:12:28.926Z,29.13
2023-02-16T14:14:57.049Z,29.92
2023-02-16T14:17:27.419Z,25.77
2023-02-16T14:19:55.067Z,25.50
2023-02-16T14:22:23.208Z,26.95
2023-02-16T14:24:53.840Z,26.55
2023-02-16T14:27:35.675Z,28.23
2023-02-16T14:30:03.006Z,27.58
2023-02-16T14:32:33.992Z,19.42
2023-02-16T14:35:04.799Z,24.77
2023-02-16T14:37:36.810Z,17.42
2023-02-16T14:40:11.356Z,15.93
2023-02-16T14:42:42.798Z,20.67
2023-02-16T14:45:18.880Z,20.35
2023-02-16T14:47:52.716Z,19.75
2023-02-16T14:50:28.634Z,19.90
2023-02-16T14:53:22.374Z,16.70
2023-02-16T14:56:06.886Z,15.40
2023-02-16T14:58:38.100Z,18.63
2023-02-16T15:01:08.672Z,15.13
2023-02-16T15:03:41.752Z,16.33
2023-02-16T15:06:14.472Z,17.23
2023-02-16T15:08:48.631Z,20.50
2023-02-16T15:11:19.926Z,16.38
2023-02-16T15:13:46.928Z,17.67
2023-02-16T15:16:16.429Z,16.45
2023-02-16T15:18:46.550Z,15.65
2023-02-16T15:21:17.241Z,19.88
2023-02-16T15:23:48.089Z,21.80
2023-02-16T15:26:19.495Z,19.60
2023-02-16T15:28:52.591Z,21.20
2023-02-16T15:31:23.937Z,20.13
2023-02-16T15:33:55.789Z,16.63
2023-02-16T15:36:24.402Z,17.65
2023-02-16T15:38:57.608Z,16.95
2023-02-16T15:41:25.982Z,19.45
2023-02-16T15:43:52.725Z,18.77
2023-02-16T15:46:24.124Z,21.60
2023-02-16T15:48:51.020Z,19.95
2023-02-16T15:51:20.974Z,17.42
2023-02-16T15:53:49.415Z,17.10
2023-02-16T15:56:28.184Z,17.70
2023-02-16T15:58:55.585Z,17.35
2023-02-16T16:01:31.251Z,20.27
2023-02-16T16:03:58.678Z,19.70
2023-02-16T16:06:31.903Z,16.88
2023-02-16T16:09:00.433Z,19.23
2023-02-16T16:11:27.037Z,18.35
2023-02-16T16:13:53.725Z,17.20
2023-02-16T16:16:22.650Z,16.60
2023-02-16T16:18:52.221Z,21.90
2023-02-16T16:21:20.493Z,19.15
2023-02-16T16:23:59.076Z,20.48
2023-02-16T16:26:26.447Z,20.58
2023-02-16T16:28:53.035Z,18.67
2023-02-16T16:31:31.318Z,17.88
2023-02-16T16:33:58.889Z,19.83
2023-02-16T16:36:29.107Z,18.85
2023-02-16T16:39:09.514Z,19.08
2023-02-16T16:41:36.269Z,17.65
2023-02-16T16:44:03.036Z,17.55
2023-02-16T16:46:30.177Z,15.77
2023-02-16T16:49:00.055Z,18.98
2023-02-16T16:51:36.607Z,33.17
2023-02-16T16:54:05.601Z,24.63
2023-02-16T16:56:34.963Z,17.13
2023-02-16T16:59:01.454Z,16.70
2023-02-16T17:01:29.101Z,23.20
2023-02-16T17:03:55.658Z,17.55
2023-02-16T17:06:22.527Z,18.33
2023-02-16T17:08:49.085Z,27.35
2023-02-16T17:11:20.772Z,20.85
2023-02-16T17:13:47.397Z,25.35
2023-02-16T17:16:15.804Z,24.50
2023-02-16T17:18:42.365Z,24.45
2023-02-16T17:21:10.493Z,30.30
2023-02-16T17:23:45.210Z,39.15
2023-02-16T17:26:18.483Z,21.17
2023-02-16T17:28:45.094Z,18.15
2023-02-16T17:31:11.919Z,18.70
2023-02-16T17:33:38.616Z,17.75
2023-02-16T17:36:06.787Z,22.15
2023-02-16T17:38:33.637Z,19.80
2023-02-16T17:41:00.391Z,26.95
2023-02-16T17:43:28.682Z,27.88
2023-02-16T17:45:56.195Z,24.38
2023-02-16T17:48:23.667Z,27.10
2023-02-16T17:50:51.338Z,24.88
2023-02-16T17:53:19.133Z,20.95
2023-02-16T17:55:46.836Z,18.02
2023-02-16T17:58:13.746Z,21.83
2023-02-16T18:00:41.807Z,22.92
2023-02-16T18:03:08.945Z,20.40
2023-02-16T18:05:35.870Z,17.83
2023-02-16T18:08:02.685Z,18.27
2023-02-16T18:10:34.589Z,15.45
2023-02-16T18:13:01.896Z,18.60
2023-02-16T18:15:28.913Z,17.67
2023-02-16T18:17:57.097Z,14.82
2023-02-16T18:20:27.145Z,18.27
2023-02-16T18:22:54.218Z,15.20
2023-02-16T18:25:20.877Z,17.52
2023-02-16T18:27:47.451Z,20.88
2023-02-16T18:30:14.671Z,14.85
2023-02-16T18:32:41.947Z,17.60
2023-02-16T18:35:10.760Z,18.15
2023-02-16T18:37:37.469Z,17.70
2023-02-16T18:40:04.629Z,21.63
2023-02-16T18:42:31.128Z,16.70
2023-02-16T18:44:57.751Z,16.02
2023-02-16T18:47:24.393Z,16.48
2023-02-16T18:49:52.558Z,19.42
2023-02-16T18:52:20.812Z,23.98
2023-02-16T18:54:47.481Z,19.20
2023-02-16T18:57:16.637Z,17.63
2023-02-16T18:59:43.341Z,18.10
2023-02-16T19:02:11.184Z,17.20
2023-02-16T19:04:37.955Z,17.95
2023-02-16T19:07:04.794Z,16.48
2023-02-16T19:09:32.698Z,21.02
2023-02-16T19:11:59.233Z,19.15
2023-02-16T19:14:25.698Z,14.32
2023-02-16T19:16:52.307Z,16.35
2023-02-16T19:19:18.981Z,17.77
2023-02-16T19:21:45.574Z,15.13
2023-02-16T19:24:12.838Z,15.63
2023-02-16T19:26:40.828Z,17.40
2023-02-16T19:29:07.391Z,18.73
2023-02-16T19:31:35.657Z,14.68
2023-02-16T19:34:02.465Z,15.00
2023-02-16T19:36:30.719Z,16.73
2023-02-16T19:38:57.601Z,15.80
2023-02-16T19:41:25.531Z,17.13
2023-02-16T19:43:53.866Z,16.77
2023-02-16T19:46:20.938Z,16.40
2023-02-16T19:48:47.769Z,18.75
2023-02-16T19:51:14.620Z,16.73
2023-02-16T19:53:41.812Z,17.10
2023-02-16T19:56:09.441Z,17.45
2023-02-16T19:58:36.133Z,15.00
2023-02-16T20:01:07.421Z,14.05
2023-02-16T20:03:34.052Z,15.73
2023-02-16T20:06:00.665Z,13.93
2023-02-16T20:08:27.253Z,16.45
2023-02-16T20:10:53.931Z,23.52
2023-02-16T20:13:20.440Z,18.60
2023-02-16T20:15:47.166Z,20.35
2023-02-16T20:18:15.277Z,30.42
2023-02-16T20:20:41.802Z,27.70
2023-02-16T20:23:08.636Z,26.52
2023-02-16T20:25:35.190Z,27.25
2023-02-16T20:28:01.950Z,18.17
2023-02-16T20:30:28.677Z,22.20
2023-02-16T20:32:55.249Z,17.85
2023-02-16T20:35:23.185Z,19.33
2023-02-16T20:37:49.753Z,16.00
2023-02-16T20:40:16.919Z,14.82
2023-02-16T20:42:43.429Z,16.80
2023-02-16T20:45:09.983Z,16.05
2023-02-16T20:47:36.609Z,18.65
2023-02-16T20:50:03.341Z,20.33
2023-02-16T20:52:31.322Z,19.85
2023-02-16T20:54:58.704Z,20.90
2023-02-16T20:57:27.331Z,25.02
2023-02-16T20:59:54.280Z,18.67
2023-02-16T21:02:20.928Z,23.95
2023-02-16T21:04:47.502Z,16.83
2023-02-16T21:07:14.030Z,16.40
2023-02-16T21:09:42.545Z,14.25
2023-02-16T21:12:09.080Z,18.58
2023-02-16T21:14:35.603Z,13.15
2023-02-16T21:17:02.251Z,16.38
2023-02-16T21:19:28.797Z,16.50
2023-02-16T21:21:55.375Z,17.77
2023-02-16T21:24:22.418Z,15.02
2023-02-16T21:26:50.314Z,14.02
2023-02-16T21:29:16.952Z,15.23
2023-02-16T21:31:43.957Z,25.02
2023-02-16T21:34:10.538Z,28.98
2023-02-16T21:36:38.233Z,25.63
2023-02-16T21:39:05.263Z,31.52
2023-02-16T21:41:31.768Z,19.30
2023-02-16T21:44:01.474Z,22.77
2023-02-16T21:46:29.146Z,20.02
2023-02-16T21:48:57.347Z,18.77
2023-02-16T21:51:24.834Z,18.60
2023-02-16T21:53:51.929Z,17.90
2023-02-16T21:56:33.107Z,16.02
2023-02-16T21:59:01.497Z,16.60
2023-02-16T22:01:29.064Z,18.50
2023-02-16T22:03:59.470Z,19.65
2023-02-16T22:06:26.867Z,17.83
2023-02-16T22:08:53.475Z,12.40
2023-02-16T22:11:20.053Z,16.85
2023-02-16T22:13:46.664Z,13.65
2023-02-16T22:16:16.698Z,14.70
2023-02-16T22:18:43.517Z,16.00
2023-02-16T22:21:10.506Z,15.93
2023-02-16T22:23:37.173Z,15.32
2023-02-16T22:26:04.767Z,14.80
2023-02-16T22:28:31.546Z,19.17
2023-02-16T22:30:58.122Z,17.15
2023-02-16T22:33:25.965Z,18.13
2023-02-16T22:35:52.452Z,19.92
2023-02-16T22:38:18.982Z,18.85
2023-02-16T22:40:45.506Z,19.80
2023-02-16T22:43:12.217Z,17.58
2023-02-16T22:45:38.703Z,18.33
2023-02-16T22:48:05.181Z,19.67
2023-02-16T22:50:32.991Z,21.00
2023-02-16T22:52:59.473Z,18.88
2023-02-16T22:55:25.960Z,19.55
2023-02-16T22:57:52.487Z,22.25
2023-02-16T23:00:19.126Z,20.83
2023-02-16T23:02:45.591Z,21.23
2023-02-16T23:05:12.102Z,21.33
2023-02-16T23:07:40.016Z,21.25
2023-02-16T23:10:07.365Z,22.13
2023-02-16T23:12:33.771Z,23.00
2023-02-16T23:15:00.194Z,21.40
2023-02-16T23:17:26.685Z,21.52
2023-02-16T23:19:53.198Z,26.30
2023-02-16T23:22:19.682Z,24.35
2023-02-16T23:25:07.421Z,20.73
2023-02-16T23:27:33.917Z,22.63
2023-02-16T23:30:00.407Z,23.15
2023-02-16T23:32:27.107Z,24.63
2023-02-16T23:34:53.769Z,23.08
2023-02-16T23:37:20.223Z,23.25
2023-02-16T23:39:48.049Z,24.20
2023-02-16T23:42:14.468Z,25.08
2023-02-16T23:44:41.028Z,25.30
2023-02-16T23:47:07.568Z,22.63
2023-02-16T23:49:34.035Z,24.15
2023-02-16T23:52:00.511Z,23.58
